Time;durP1;ratioP1;P1;durP2;ratioP2;P2;SDS_P1;SDS_P2;PMS_P1;PMS_P2;Temp;Humidity;BMP_temperature;BMP_pressure;BME280_temperature;BME280_humidity;BME280_pressure;Samples;Min_cycle;Max_cycle;Signal;HPM_P1;HPM_P2
2023/11/13 00:01:11;;;;;;;9.10;5.85;;;;;;;;;;5086626;28;20067;-53
2023/11/13 00:03:38;;;;;;;7.60;6.05;;;;;;;;;;5086174;28;20048;-52
2023/11/13 00:06:04;;;;;;;10.23;6.72;;;;;;;;;;5091420;28;20012;-50
2023/11/13 00:08:32;;;;;;;10.25;6.18;;;;;;;;;;5098065;28;20036;-57
2023/11/13 00:10:58;;;;;;;11.02;6.18;;;;;;;;;;5099595;28;20040;-52
2023/11/13 00:13:25;;;;;;;8.85;6.30;;;;;;;;;;5096034;28;20130;-55
2023/11/13 00:15:52;;;;;;;11.52;6.35;;;;;;;;;;5100241;28;20036;-57
2023/11/13 00:18:19;;;;;;;8.88;6.35;;;;;;;;;;5097506;28;20047;-55
2023/11/13 00:20:46;;;;;;;8.50;5.97;;;;;;;;;;5100020;28;20036;-59
2023/11/13 00:23:12;;;;;;;8.95;6.38;;;;;;;;;;5121007;28;20305;-57
2023/11/13 00:25:39;;;;;;;12.80;6.35;;;;;;;;;;5116706;28;20027;-52
2023/11/13 00:28:05;;;;;;;8.57;6.10;;;;;;;;;;5106190;28;20075;-52
2023/11/13 00:30:33;;;;;;;8.35;6.35;;;;;;;;;;5104486;28;20245;-57
2023/11/13 00:33:00;;;;;;;9.27;6.38;;;;;;;;;;5098680;28;20028;-54
2023/11/13 00:35:26;;;;;;;9.43;5.95;;;;;;;;;;5101980;28;20047;-57
2023/11/13 00:37:57;;;;;;;9.02;5.75;;;;;;;;;;5098927;28;20028;-52
2023/11/13 00:40:24;;;;;;;7.75;6.13;;;;;;;;;;5114821;28;20051;-56
2023/11/13 00:42:51;;;;;;;7.70;5.78;;;;;;;;;;5105755;28;20024;-56
2023/11/13 00:45:18;;;;;;;7.18;5.65;;;;;;;;;;5106352;28;20031;-57
2023/11/13 00:47:45;;;;;;;8.52;6.13;;;;;;;;;;5105587;28;20062;-59
2023/11/13 00:50:12;;;;;;;11.60;7.32;;;;;;;;;;5106066;28;20052;-57
2023/11/13 00:52:39;;;;;;;10.65;8.10;;;;;;;;;;5108354;28;20028;-60
2023/11/13 00:55:06;;;;;;;10.68;7.55;;;;;;;;;;5117256;28;20180;-52
2023/11/13 00:57:32;;;;;;;11.75;7.63;;;;;;;;;;5112090;28;20261;-61
2023/11/13 00:59:59;;;;;;;12.18;7.35;;;;;;;;;;5094604;28;20037;-62
2023/11/13 01:02:26;;;;;;;11.48;7.20;;;;;;;;;;5085044;28;20029;-55
2023/11/13 01:04:52;;;;;;;11.57;7.43;;;;;;;;;;5101512;28;20019;-55
2023/11/13 01:07:19;;;;;;;10.15;7.20;;;;;;;;;;5097941;28;20324;-56
2023/11/13 01:09:46;;;;;;;10.55;7.10;;;;;;;;;;5098500;28;20035;-52
2023/11/13 01:12:14;;;;;;;10.50;7.55;;;;;;;;;;5096439;28;20375;-52
2023/11/13 01:14:41;;;;;;;12.10;6.85;;;;;;;;;;5105637;28;20047;-54
2023/11/13 01:17:07;;;;;;;10.70;7.70;;;;;;;;;;5101395;28;20316;-52
2023/11/13 01:19:34;;;;;;;11.55;8.50;;;;;;;;;;5099036;28;20028;-53
2023/11/13 01:22:00;;;;;;;9.75;7.90;;;;;;;;;;5093296;28;20039;-60
2023/11/13 01:24:27;;;;;;;9.73;7.05;;;;;;;;;;5093900;28;20301;-53
2023/11/13 01:26:55;;;;;;;7.50;6.57;;;;;;;;;;5095735;28;20020;-54
2023/11/13 01:29:21;;;;;;;14.10;7.47;;;;;;;;;;5084870;28;20074;-54
2023/11/13 01:31:48;;;;;;;11.63;7.53;;;;;;;;;;5084676;28;20059;-55
2023/11/13 01:34:15;;;;;;;12.07;8.13;;;;;;;;;;5084717;28;20020;-56
2023/11/13 01:36:45;;;;;;;13.45;8.13;;;;;;;;;;5084472;28;20021;-55
2023/11/13 01:39:12;;;;;;;10.25;7.78;;;;;;;;;;5094854;28;20033;-55
2023/11/13 01:41:39;;;;;;;9.75;7.25;;;;;;;;;;5109889;28;20050;-54
2023/11/13 01:44:06;;;;;;;12.98;6.68;;;;;;;;;;5104591;28;20032;-54
2023/11/13 01:46:33;;;;;;;10.48;7.03;;;;;;;;;;5103292;28;20051;-55
2023/11/13 01:49:03;;;;;;;10.05;6.90;;;;;;;;;;5103759;28;20107;-55
2023/11/13 01:51:30;;;;;;;11.40;6.65;;;;;;;;;;5104675;28;20020;-54
2023/11/13 01:53:57;;;;;;;10.63;6.07;;;;;;;;;;5104730;28;20107;-54
2023/11/13 01:56:26;;;;;;;9.98;6.00;;;;;;;;;;5104390;28;20220;-55
2023/11/13 01:58:56;;;;;;;9.48;6.10;;;;;;;;;;5104570;28;20040;-56
2023/11/13 02:01:23;;;;;;;11.15;6.10;;;;;;;;;;5104268;28;20070;-52
2023/11/13 02:03:50;;;;;;;11.02;6.25;;;;;;;;;;5104447;28;20485;-57
2023/11/13 02:06:20;;;;;;;7.55;5.40;;;;;;;;;;5104286;28;20031;-55
2023/11/13 02:08:47;;;;;;;7.80;4.82;;;;;;;;;;5104304;28;20042;-52
2023/11/13 02:11:15;;;;;;;8.73;4.90;;;;;;;;;;5104209;28;20080;-55
2023/11/13 02:13:42;;;;;;;9.57;5.25;;;;;;;;;;5104359;28;20040;-54
2023/11/13 02:16:12;;;;;;;8.52;4.80;;;;;;;;;;5104154;28;20098;-51
2023/11/13 02:18:39;;;;;;;6.63;4.75;;;;;;;;;;5104404;28;20354;-55
2023/11/13 02:21:05;;;;;;;9.93;4.50;;;;;;;;;;5104111;28;20040;-54
2023/11/13 02:23:32;;;;;;;5.25;3.65;;;;;;;;;;5104038;28;20043;-58
2023/11/13 02:26:00;;;;;;;9.88;4.57;;;;;;;;;;5104307;28;20226;-59
2023/11/13 02:28:27;;;;;;;6.60;4.40;;;;;;;;;;5104152;28;20077;-56
2023/11/13 02:30:53;;;;;;;6.93;4.22;;;;;;;;;;5104034;28;20031;-55
2023/11/13 02:33:21;;;;;;;8.40;4.97;;;;;;;;;;5104064;28;20032;-55
2023/11/13 02:35:48;;;;;;;11.57;5.57;;;;;;;;;;5104091;28;20032;-55
2023/11/13 02:38:14;;;;;;;7.78;5.72;;;;;;;;;;5103837;28;20043;-56
2023/11/13 02:40:41;;;;;;;10.52;5.88;;;;;;;;;;5103851;28;20023;-54
2023/11/13 02:43:09;;;;;;;9.48;6.00;;;;;;;;;;5103844;28;20035;-56
2023/11/13 02:45:35;;;;;;;6.90;5.30;;;;;;;;;;5103736;28;20024;-58
2023/11/13 02:48:02;;;;;;;9.20;5.63;;;;;;;;;;5104331;28;20032;-54
2023/11/13 02:50:31;;;;;;;8.95;5.53;;;;;;;;;;5103781;28;20036;-57
2023/11/13 02:52:58;;;;;;;12.20;5.70;;;;;;;;;;5103626;28;20197;-51
2023/11/13 02:55:25;;;;;;;8.90;5.35;;;;;;;;;;5104717;28;20270;-58
2023/11/13 02:57:52;;;;;;;9.40;6.10;;;;;;;;;;5108064;28;20320;-55
2023/11/13 03:00:19;;;;;;;7.97;5.40;;;;;;;;;;5107861;28;20399;-56
2023/11/13 03:02:46;;;;;;;6.85;5.10;;;;;;;;;;5107781;28;20028;-54
2023/11/13 03:05:14;;;;;;;6.80;5.03;;;;;;;;;;5108410;28;20055;-55
2023/11/13 03:07:41;;;;;;;9.00;4.32;;;;;;;;;;5107630;28;20035;-51
2023/11/13 03:10:08;;;;;;;8.00;4.47;;;;;;;;;;5108128;28;20255;-54
2023/11/13 03:12:34;;;;;;;8.10;3.85;;;;;;;;;;5107625;28;20085;-56
2023/11/13 03:15:01;;;;;;;6.80;3.70;;;;;;;;;;5108073;28;20099;-56
2023/11/13 03:17:27;;;;;;;5.63;3.50;;;;;;;;;;5107368;28;20020;-55
2023/11/13 03:19:54;;;;;;;6.32;3.42;;;;;;;;;;5107973;28;20039;-57
2023/11/13 03:22:21;;;;;;;6.82;3.70;;;;;;;;;;5107318;28;20028;-55
2023/11/13 03:24:47;;;;;;;6.32;3.67;;;;;;;;;;5107779;28;20047;-54
2023/11/13 03:27:14;;;;;;;5.57;3.45;;;;;;;;;;5107438;28;20073;-56
2023/11/13 03:29:41;;;;;;;7.78;3.40;;;;;;;;;;5107717;28;20028;-57
2023/11/13 03:32:08;;;;;;;9.45;3.58;;;;;;;;;;5107186;28;20073;-54
2023/11/13 03:34:35;;;;;;;6.50;3.97;;;;;;;;;;5107583;28;20035;-55
2023/11/13 03:37:02;;;;;;;5.47;3.40;;;;;;;;;;5107201;28;20338;-57
2023/11/13 03:39:28;;;;;;;8.77;3.60;;;;;;;;;;5107187;28;20020;-55
2023/11/13 03:41:55;;;;;;;6.95;3.60;;;;;;;;;;5107432;28;20024;-54
2023/11/13 03:44:22;;;;;;;6.60;3.35;;;;;;;;;;5107302;28;20071;-54
2023/11/13 03:46:48;;;;;;;5.53;3.42;;;;;;;;;;5106919;28;20071;-54
2023/11/13 03:49:15;;;;;;;9.13;3.70;;;;;;;;;;5106886;28;20052;-55
2023/11/13 03:51:42;;;;;;;7.45;4.00;;;;;;;;;;5106951;28;20039;-54
2023/11/13 03:54:09;;;;;;;5.85;3.75;;;;;;;;;;5106875;28;20048;-59
2023/11/13 03:56:35;;;;;;;5.25;3.58;;;;;;;;;;5106906;28;20059;-56
2023/11/13 03:59:02;;;;;;;8.40;3.65;;;;;;;;;;5107010;28;20153;-56
2023/11/13 04:01:29;;;;;;;9.88;4.07;;;;;;;;;;5106551;28;20020;-53
2023/11/13 04:03:56;;;;;;;8.23;3.85;;;;;;;;;;5106968;28;20055;-55
2023/11/13 04:06:22;;;;;;;8.25;3.40;;;;;;;;;;5106222;28;20023;-54
2023/11/13 04:08:49;;;;;;;7.03;3.67;;;;;;;;;;5106636;28;20052;-56
2023/11/13 04:11:15;;;;;;;8.00;4.05;;;;;;;;;;5106520;28;20091;-54
2023/11/13 04:13:42;;;;;;;7.40;3.60;;;;;;;;;;5106560;28;20040;-58
2023/11/13 04:16:09;;;;;;;6.35;3.50;;;;;;;;;;5106282;28;20212;-54
2023/11/13 04:18:36;;;;;;;6.28;4.00;;;;;;;;;;5106681;28;20118;-53
2023/11/13 04:21:04;;;;;;;5.07;3.55;;;;;;;;;;5106279;28;20023;-54
2023/11/13 04:23:30;;;;;;;4.65;3.33;;;;;;;;;;5106277;28;20032;-53
2023/11/13 04:25:57;;;;;;;8.38;3.42;;;;;;;;;;5106317;28;20054;-54
2023/11/13 04:28:28;;;;;;;6.72;4.20;;;;;;;;;;5106212;28;20052;-54
2023/11/13 04:30:55;;;;;;;6.97;3.80;;;;;;;;;;5106002;28;20046;-55
2023/11/13 04:33:22;;;;;;;8.63;3.95;;;;;;;;;;5106125;28;20025;-56
2023/11/13 04:35:49;;;;;;;8.13;3.90;;;;;;;;;;5106154;28;20097;-54
2023/11/13 04:38:16;;;;;;;6.57;4.25;;;;;;;;;;5105816;28;20034;-53
2023/11/13 04:40:42;;;;;;;7.43;3.70;;;;;;;;;;5105852;28;20024;-55
2023/11/13 04:43:09;;;;;;;5.38;3.83;;;;;;;;;;5106054;28;20039;-55
2023/11/13 04:45:35;;;;;;;6.18;3.80;;;;;;;;;;5105810;28;20358;-54
2023/11/13 04:48:02;;;;;;;6.43;3.83;;;;;;;;;;5105743;28;20102;-56
2023/11/13 04:50:28;;;;;;;8.27;4.15;;;;;;;;;;5105628;28;20103;-55
2023/11/13 04:52:55;;;;;;;4.40;3.70;;;;;;;;;;5105561;28;20027;-53
2023/11/13 04:55:22;;;;;;;9.07;3.63;;;;;;;;;;5105944;28;20040;-54
2023/11/13 04:57:48;;;;;;;7.38;4.03;;;;;;;;;;5105704;28;20080;-60
2023/11/13 05:00:15;;;;;;;4.72;3.20;;;;;;;;;;5106118;28;20031;-54
2023/11/13 05:02:42;;;;;;;5.03;3.25;;;;;;;;;;5105250;28;20039;-53
2023/11/13 05:05:11;;;;;;;5.35;3.20;;;;;;;;;;5105958;28;20028;-55
2023/11/13 05:07:38;;;;;;;5.97;3.10;;;;;;;;;;5105424;28;20216;-54
2023/11/13 05:10:05;;;;;;;4.70;2.78;;;;;;;;;;5105684;28;20048;-54
2023/11/13 05:12:32;;;;;;;5.28;3.15;;;;;;;;;;5105293;28;20042;-55
2023/11/13 05:14:59;;;;;;;5.63;2.88;;;;;;;;;;5105753;28;20034;-55
2023/11/13 05:17:25;;;;;;;5.80;3.20;;;;;;;;;;5104883;28;20104;-53
2023/11/13 05:19:52;;;;;;;6.20;2.85;;;;;;;;;;5105149;28;20113;-58
2023/11/13 05:22:18;;;;;;;7.03;2.92;;;;;;;;;;5105007;28;20065;-55
2023/11/13 05:24:45;;;;;;;5.10;3.10;;;;;;;;;;5105503;28;20308;-54
2023/11/13 05:27:13;;;;;;;5.20;3.20;;;;;;;;;;5105034;28;20059;-53
2023/11/13 05:29:41;;;;;;;5.70;3.10;;;;;;;;;;5105342;28;20016;-54
2023/11/13 05:32:08;;;;;;;5.45;3.10;;;;;;;;;;5105100;28;20032;-55
2023/11/13 05:34:34;;;;;;;6.82;3.20;;;;;;;;;;5105230;28;20032;-54
2023/11/13 05:37:01;;;;;;;5.55;2.80;;;;;;;;;;5104921;28;20020;-54
2023/11/13 05:39:27;;;;;;;6.35;2.90;;;;;;;;;;5104923;28;20044;-53
2023/11/13 05:41:54;;;;;;;9.27;3.17;;;;;;;;;;5104848;28;20254;-54
2023/11/13 05:44:21;;;;;;;7.13;3.50;;;;;;;;;;5105022;28;20347;-55
2023/11/13 05:46:47;;;;;;;7.40;2.80;;;;;;;;;;5104696;28;20032;-53
2023/11/13 05:49:14;;;;;;;9.57;3.00;;;;;;;;;;5104621;28;20047;-54
2023/11/13 05:51:41;;;;;;;5.15;3.17;;;;;;;;;;5104593;28;20008;-54
2023/11/13 05:54:08;;;;;;;6.45;3.03;;;;;;;;;;5104596;28;20036;-54
2023/11/13 05:56:34;;;;;;;7.63;3.28;;;;;;;;;;5104475;28;20020;-59
2023/11/13 05:59:01;;;;;;;7.20;3.30;;;;;;;;;;5104718;28;20016;-54
2023/11/13 06:01:31;;;;;;;4.93;3.03;;;;;;;;;;5104360;28;20047;-53
2023/11/13 06:03:58;;;;;;;9.52;2.88;;;;;;;;;;5104505;28;20059;-56
2023/11/13 06:06:25;;;;;;;6.53;2.92;;;;;;;;;;5104324;28;20016;-54
2023/11/13 06:08:52;;;;;;;5.88;3.20;;;;;;;;;;5104274;28;20295;-54
2023/11/13 06:11:19;;;;;;;6.90;3.30;;;;;;;;;;5104318;28;20032;-54
2023/11/13 06:13:46;;;;;;;6.13;3.40;;;;;;;;;;5104401;28;20028;-54
2023/11/13 06:16:13;;;;;;;8.68;3.30;;;;;;;;;;5104066;28;20027;-53
2023/11/13 06:18:46;;;;;;;6.07;3.10;;;;;;;;;;5104340;28;20040;-54
2023/11/13 06:21:14;;;;;;;6.55;3.50;;;;;;;;;;5104203;28;20020;-54
2023/11/13 06:23:43;;;;;;;10.18;3.42;;;;;;;;;;5104105;28;20039;-54
2023/11/13 06:26:13;;;;;;;8.15;3.40;;;;;;;;;;5104108;28;20054;-53
2023/11/13 06:28:40;;;;;;;6.60;2.97;;;;;;;;;;5104328;28;20061;-56
2023/11/13 06:31:08;;;;;;;8.77;3.50;;;;;;;;;;5103873;28;20087;-53
2023/11/13 06:33:36;;;;;;;10.55;3.00;;;;;;;;;;5104141;28;20242;-55
2023/11/13 06:36:09;;;;;;;5.90;2.83;;;;;;;;;;5104052;28;20023;-54
2023/11/13 06:38:36;;;;;;;10.05;2.97;;;;;;;;;;5104170;28;20039;-57
2023/11/13 06:41:03;;;;;;;7.53;2.95;;;;;;;;;;5103857;28;20046;-54
2023/11/13 06:43:30;;;;;;;6.00;2.60;;;;;;;;;;5103814;28;20032;-55
2023/11/13 06:45:58;;;;;;;5.75;2.78;;;;;;;;;;5104026;28;20028;-53
2023/11/13 06:48:25;;;;;;;9.15;2.92;;;;;;;;;;5103937;28;20020;-53
2023/11/13 06:50:52;;;;;;;5.53;2.70;;;;;;;;;;5103668;28;20103;-52
2023/11/13 06:53:18;;;;;;;6.75;2.85;;;;;;;;;;5103934;28;20043;-58
2023/11/13 06:55:45;;;;;;;8.25;3.00;;;;;;;;;;5103815;28;20035;-55
2023/11/13 06:58:12;;;;;;;10.15;2.92;;;;;;;;;;5103694;28;20054;-52
2023/11/13 07:00:38;;;;;;;5.57;2.67;;;;;;;;;;5103760;28;20040;-53
2023/11/13 07:03:05;;;;;;;5.90;2.53;;;;;;;;;;5103705;28;20087;-53
2023/11/13 07:05:32;;;;;;;4.25;2.70;;;;;;;;;;5103789;28;20105;-52
2023/11/13 07:07:59;;;;;;;5.97;2.70;;;;;;;;;;5103927;28;20051;-52
2023/11/13 07:10:31;;;;;;;6.03;2.70;;;;;;;;;;5103672;28;20020;-55
2023/11/13 07:12:58;;;;;;;5.90;2.50;;;;;;;;;;5103712;28;20051;-53
2023/11/13 07:15:24;;;;;;;6.35;2.75;;;;;;;;;;5103698;28;20232;-55
2023/11/13 07:17:51;;;;;;;8.75;2.55;;;;;;;;;;5103916;28;20016;-53
2023/11/13 07:20:20;;;;;;;5.53;2.45;;;;;;;;;;5104303;28;20040;-52
2023/11/13 07:22:50;;;;;;;6.47;2.13;;;;;;;;;;5103615;28;20032;-53
2023/11/13 07:25:17;;;;;;;16.95;2.75;;;;;;;;;;5104204;28;20047;-53
2023/11/13 07:27:43;;;;;;;9.57;2.63;;;;;;;;;;5103368;28;20032;-53
2023/11/13 07:30:10;;;;;;;9.40;2.20;;;;;;;;;;5104022;28;20146;-53
2023/11/13 07:32:37;;;;;;;6.22;2.30;;;;;;;;;;5103463;28;20027;-54
2023/11/13 07:35:03;;;;;;;5.03;2.45;;;;;;;;;;5103275;28;20046;-59
2023/11/13 07:37:31;;;;;;;7.20;2.38;;;;;;;;;;5103555;28;20039;-52
2023/11/13 07:39:59;;;;;;;8.75;2.75;;;;;;;;;;5103803;28;20024;-60
2023/11/13 07:42:26;;;;;;;7.00;2.80;;;;;;;;;;5105591;28;20346;-57
2023/11/13 07:44:55;;;;;;;4.13;2.15;;;;;;;;;;5106974;28;20046;-60
2023/11/13 07:47:26;;;;;;;8.32;2.25;;;;;;;;;;5106947;28;20012;-59
2023/11/13 07:49:56;;;;;;;5.03;2.30;;;;;;;;;;5106759;28;20044;-58
2023/11/13 07:52:26;;;;;;;6.18;2.50;;;;;;;;;;5106986;28;20055;-57
2023/11/13 07:54:53;;;;;;;11.30;2.63;;;;;;;;;;5107244;28;20099;-58
2023/11/13 07:57:20;;;;;;;7.95;2.60;;;;;;;;;;5105897;28;20028;-60
2023/11/13 07:59:47;;;;;;;7.82;2.40;;;;;;;;;;5106067;28;20035;-61
2023/11/13 08:02:15;;;;;;;4.53;2.28;;;;;;;;;;5106672;28;20032;-59
2023/11/13 08:04:41;;;;;;;7.82;2.40;;;;;;;;;;5106967;28;20224;-63
2023/11/13 08:07:08;;;;;;;9.30;3.28;;;;;;;;;;5105032;28;20026;-59
2023/11/13 08:09:35;;;;;;;6.60;2.70;;;;;;;;;;5104756;28;20039;-61
2023/11/13 08:12:01;;;;;;;9.55;2.47;;;;;;;;;;5104979;28;20039;-61
2023/11/13 08:14:29;;;;;;;10.20;2.40;;;;;;;;;;5105180;28;20076;-62
2023/11/13 08:16:56;;;;;;;4.47;2.38;;;;;;;;;;5104712;28;20232;-61
2023/11/13 08:19:24;;;;;;;5.32;2.35;;;;;;;;;;5104832;28;20036;-60
2023/11/13 08:21:52;;;;;;;4.53;2.42;;;;;;;;;;5105738;28;20331;-61
2023/11/13 08:24:19;;;;;;;4.82;2.40;;;;;;;;;;5106631;28;20099;-59
2023/11/13 08:26:46;;;;;;;5.32;2.30;;;;;;;;;;5106165;28;20028;-59
2023/11/13 08:29:16;;;;;;;6.68;2.80;;;;;;;;;;5106618;28;20023;-63
2023/11/13 08:31:43;;;;;;;4.63;2.30;;;;;;;;;;5106237;28;20323;-63
2023/11/13 08:34:10;;;;;;;8.25;3.15;;;;;;;;;;5106261;28;20082;-59
2023/11/13 08:36:36;;;;;;;7.45;3.90;;;;;;;;;;5106184;28;20024;-60
2023/11/13 08:39:03;;;;;;;6.28;3.05;;;;;;;;;;5106176;28;20035;-58
2023/11/13 08:41:32;;;;;;;9.52;3.13;;;;;;;;;;5105898;28;20039;-65
2023/11/13 08:43:59;;;;;;;4.70;2.60;;;;;;;;;;5106120;28;20346;-60
2023/11/13 08:46:26;;;;;;;5.13;2.78;;;;;;;;;;5105936;28;20032;-61
2023/11/13 08:48:54;;;;;;;5.20;2.70;;;;;;;;;;5105736;28;20032;-59
2023/11/13 08:51:27;;;;;;;4.82;2.83;;;;;;;;;;5105798;28;20062;-58
2023/11/13 08:53:55;;;;;;;5.15;2.90;;;;;;;;;;5104839;28;20312;-60
2023/11/13 08:56:23;;;;;;;5.03;2.70;;;;;;;;;;5105852;28;20229;-60
2023/11/13 08:58:49;;;;;;;6.70;3.03;;;;;;;;;;5105799;28;20258;-62
2023/11/13 09:01:17;;;;;;;7.25;2.88;;;;;;;;;;5105603;28;20170;-61
2023/11/13 09:03:44;;;;;;;5.63;2.60;;;;;;;;;;5105856;28;20040;-56
2023/11/13 09:06:13;;;;;;;5.60;2.75;;;;;;;;;;5105542;28;20091;-62
2023/11/13 09:08:42;;;;;;;5.95;3.03;;;;;;;;;;5105617;28;20020;-58
2023/11/13 09:11:09;;;;;;;9.80;2.75;;;;;;;;;;5105430;28;20065;-59
2023/11/13 09:13:36;;;;;;;6.07;2.72;;;;;;;;;;5105537;28;20312;-58
2023/11/13 09:16:05;;;;;;;7.10;2.97;;;;;;;;;;5105322;28;20046;-58
2023/11/13 09:18:32;;;;;;;8.45;3.00;;;;;;;;;;5105425;28;20071;-58
2023/11/13 09:20:59;;;;;;;6.72;3.10;;;;;;;;;;5105279;28;20098;-60
2023/11/13 09:23:26;;;;;;;6.82;3.05;;;;;;;;;;5105041;28;20031;-59
2023/11/13 09:25:53;;;;;;;5.78;2.65;;;;;;;;;;5105171;28;20437;-61
2023/11/13 09:28:19;;;;;;;7.68;3.15;;;;;;;;;;5105101;28;20042;-61
2023/11/13 09:30:46;;;;;;;9.00;3.20;;;;;;;;;;5105013;28;20012;-60
2023/11/13 09:33:16;;;;;;;7.05;2.90;;;;;;;;;;5105430;28;20109;-60
2023/11/13 09:35:45;;;;;;;8.55;3.00;;;;;;;;;;5105018;28;20103;-59
2023/11/13 09:38:12;;;;;;;7.60;2.83;;;;;;;;;;5104760;28;20051;-60
2023/11/13 09:40:39;;;;;;;10.95;2.90;;;;;;;;;;5104888;28;20035;-60
2023/11/13 09:43:12;;;;;;;5.85;2.63;;;;;;;;;;5104749;28;20028;-60
2023/11/13 09:45:44;;;;;;;5.43;2.80;;;;;;;;;;5104694;28;20212;-61
2023/11/13 09:48:14;;;;;;;9.10;2.95;;;;;;;;;;5104703;28;20027;-61
2023/11/13 09:50:41;;;;;;;8.07;2.88;;;;;;;;;;5104568;28;20152;-60
2023/11/13 09:53:09;;;;;;;7.63;2.80;;;;;;;;;;5104441;28;20079;-60
2023/11/13 09:55:41;;;;;;;5.03;2.53;;;;;;;;;;5104594;28;20081;-63
2023/11/13 09:58:07;;;;;;;8.65;2.60;;;;;;;;;;5104579;28;20393;-62
2023/11/13 10:00:34;;;;;;;6.43;2.60;;;;;;;;;;5104388;28;20232;-60
2023/11/13 10:03:01;;;;;;;6.53;2.60;;;;;;;;;;5104386;28;20032;-62
2023/11/13 10:05:31;;;;;;;8.50;2.70;;;;;;;;;;5104143;28;20227;-60
2023/11/13 10:07:58;;;;;;;5.25;2.80;;;;;;;;;;5104376;28;20083;-59
2023/11/13 10:10:27;;;;;;;9.45;3.20;;;;;;;;;;5104481;28;20031;-60
2023/11/13 10:12:55;;;;;;;11.82;3.50;;;;;;;;;;5104184;28;20043;-63
2023/11/13 10:15:28;;;;;;;7.25;3.45;;;;;;;;;;5104540;28;20015;-61
2023/11/13 10:17:58;;;;;;;9.60;4.07;;;;;;;;;;5104251;28;20096;-60
2023/11/13 10:20:26;;;;;;;10.45;4.40;;;;;;;;;;5104084;28;20032;-61
2023/11/13 10:23:06;;;;;;;9.38;4.80;;;;;;;;;;5104105;28;20028;-61
2023/11/13 10:25:57;;;;;;;14.07;5.10;;;;;;;;;;5104121;28;20039;-58
2023/11/13 10:28:34;;;;;;;8.23;5.00;;;;;;;;;;5104238;28;20032;-58
2023/11/13 10:31:01;;;;;;;9.43;4.60;;;;;;;;;;5104004;28;20032;-57
2023/11/13 10:33:29;;;;;;;8.98;4.47;;;;;;;;;;5104242;28;20081;-57
2023/11/13 10:36:04;;;;;;;9.27;4.00;;;;;;;;;;5104122;28;20024;-59
2023/11/13 10:38:49;;;;;;;10.07;4.05;;;;;;;;;;5104207;28;20104;-59
2023/11/13 10:41:22;;;;;;;13.32;3.92;;;;;;;;;;5103910;28;20095;-60
2023/11/13 10:43:49;;;;;;;16.17;4.80;;;;;;;;;;5104108;28;20042;-60
2023/11/13 10:46:36;;;;;;;14.85;3.90;;;;;;;;;;5103944;28;20038;-58
2023/11/13 10:49:03;;;;;;;8.75;3.60;;;;;;;;;;5103891;28;20035;-58
2023/11/13 10:51:30;;;;;;;10.02;4.00;;;;;;;;;;5103958;28;20032;-58
2023/11/13 10:53:59;;;;;;;10.10;3.95;;;;;;;;;;5104048;28;20024;-58
2023/11/13 10:56:26;;;;;;;7.88;3.97;;;;;;;;;;5103892;28;20058;-59
2023/11/13 10:58:53;;;;;;;10.80;4.10;;;;;;;;;;5104100;28;20224;-61
2023/11/13 11:01:25;;;;;;;11.50;4.00;;;;;;;;;;5103662;28;20024;-61
2023/11/13 11:03:54;;;;;;;10.13;4.03;;;;;;;;;;5103919;28;20051;-61
2023/11/13 11:06:32;;;;;;;9.82;4.00;;;;;;;;;;5103750;28;20027;-61
2023/11/13 11:09:04;;;;;;;7.85;3.70;;;;;;;;;;5103822;28;20035;-60
2023/11/13 11:11:34;;;;;;;7.95;3.70;;;;;;;;;;5103790;28;20024;-62
2023/11/13 11:14:15;;;;;;;9.95;3.45;;;;;;;;;;5103817;28;20035;-62
2023/11/13 11:16:45;;;;;;;7.32;3.63;;;;;;;;;;5105141;28;20316;-62
2023/11/13 11:19:25;;;;;;;8.90;3.75;;;;;;;;;;5107936;28;20320;-60
2023/11/13 11:22:11;;;;;;;8.45;3.60;;;;;;;;;;5107600;28;20043;-62
2023/11/13 11:24:44;;;;;;;10.07;3.72;;;;;;;;;;5107739;28;20098;-60
2023/11/13 11:27:11;;;;;;;6.53;4.40;;;;;;;;;;5107465;28;20028;-61
2023/11/13 11:29:40;;;;;;;10.32;4.80;;;;;;;;;;5107843;28;20016;-59
2023/11/13 11:32:13;;;;;;;14.02;5.13;;;;;;;;;;5107204;28;20048;-60
2023/11/13 11:34:43;;;;;;;7.82;4.65;;;;;;;;;;5107661;28;20020;-61
2023/11/13 11:37:14;;;;;;;11.68;4.90;;;;;;;;;;5107430;28;20026;-60
2023/11/13 11:39:48;;;;;;;10.02;5.57;;;;;;;;;;5107590;28;20028;-61
2023/11/13 11:42:20;;;;;;;10.68;5.20;;;;;;;;;;5107089;28;20224;-61
2023/11/13 11:44:48;;;;;;;10.55;5.25;;;;;;;;;;5107478;28;20027;-59
2023/11/13 11:47:28;;;;;;;11.07;5.32;;;;;;;;;;5107032;28;20055;-60
2023/11/13 11:49:59;;;;;;;8.75;5.20;;;;;;;;;;5106871;28;20051;-57
2023/11/13 11:52:48;;;;;;;11.50;4.93;;;;;;;;;;5106958;28;20077;-60
2023/11/13 11:55:16;;;;;;;8.88;4.80;;;;;;;;;;5107305;28;20071;-61
2023/11/13 11:57:44;;;;;;;8.63;4.63;;;;;;;;;;5106924;28;20081;-59
2023/11/13 12:00:15;;;;;;;11.07;4.32;;;;;;;;;;5107316;28;20036;-56
2023/11/13 12:02:42;;;;;;;10.73;4.80;;;;;;;;;;5106687;28;20332;-59
2023/11/13 12:05:10;;;;;;;11.02;4.97;;;;;;;;;;5107202;28;20033;-59
2023/11/13 12:07:37;;;;;;;9.98;4.70;;;;;;;;;;5106697;28;20028;-56
2023/11/13 12:10:08;;;;;;;6.45;4.47;;;;;;;;;;5107159;28;20208;-58
2023/11/13 12:12:38;;;;;;;9.48;4.53;;;;;;;;;;5106578;28;20036;-57
2023/11/13 12:15:07;;;;;;;8.40;4.90;;;;;;;;;;5106811;28;20040;-57
2023/11/13 12:17:37;;;;;;;9.43;5.18;;;;;;;;;;5106586;28;20095;-61
2023/11/13 12:20:09;;;;;;;8.70;5.00;;;;;;;;;;5106896;28;20038;-58
2023/11/13 12:22:40;;;;;;;8.38;4.78;;;;;;;;;;5106482;28;20107;-60
2023/11/13 12:25:07;;;;;;;9.30;5.18;;;;;;;;;;5106805;28;20092;-59
2023/11/13 12:27:40;;;;;;;8.40;4.38;;;;;;;;;;5106395;28;20020;-57
2023/11/13 12:30:15;;;;;;;8.13;4.60;;;;;;;;;;5106684;28;20024;-59
2023/11/13 12:32:42;;;;;;;8.05;4.60;;;;;;;;;;5106244;28;20236;-60
2023/11/13 12:35:10;;;;;;;6.43;4.38;;;;;;;;;;5106507;28;20035;-61
2023/11/13 12:37:37;;;;;;;6.43;4.30;;;;;;;;;;5106186;28;20028;-60
2023/11/13 12:40:04;;;;;;;12.13;4.30;;;;;;;;;;5106428;28;20028;-60
2023/11/13 12:42:32;;;;;;;5.88;4.10;;;;;;;;;;5105859;28;20035;-61
2023/11/13 12:45:00;;;;;;;8.38;4.20;;;;;;;;;;5106355;28;20055;-60
2023/11/13 12:47:27;;;;;;;7.47;3.72;;;;;;;;;;5106029;28;20212;-59
2023/11/13 12:49:54;;;;;;;7.18;3.92;;;;;;;;;;5105871;28;20048;-61
2023/11/13 12:52:21;;;;;;;5.75;3.63;;;;;;;;;;5105810;28;20301;-61
2023/11/13 12:54:49;;;;;;;5.80;3.58;;;;;;;;;;5106226;28;20046;-61
2023/11/13 12:57:18;;;;;;;7.55;3.75;;;;;;;;;;5105613;28;20051;-62
2023/11/13 12:59:45;;;;;;;5.00;3.53;;;;;;;;;;5105985;28;20032;-60
2023/11/13 13:02:12;;;;;;;6.38;3.30;;;;;;;;;;5105327;28;20335;-67
2023/11/13 13:04:39;;;;;;;7.03;4.05;;;;;;;;;;5105693;28;20027;-58
2023/11/13 13:07:09;;;;;;;4.93;3.20;;;;;;;;;;5105512;28;20039;-57
2023/11/13 13:09:36;;;;;;;6.93;3.38;;;;;;;;;;5105668;28;20046;-60
2023/11/13 13:12:03;;;;;;;7.38;3.20;;;;;;;;;;5105224;28;20020;-57
2023/11/13 13:14:31;;;;;;;4.13;2.97;;;;;;;;;;5105693;28;20056;-58
2023/11/13 13:17:00;;;;;;;4.20;3.10;;;;;;;;;;5105444;28;20023;-66
2023/11/13 13:19:28;;;;;;;5.70;2.90;;;;;;;;;;5105658;28;20020;-66
2023/11/13 13:21:54;;;;;;;5.75;3.38;;;;;;;;;;5104167;28;20107;-66
2023/11/13 13:24:25;;;;;;;5.47;2.90;;;;;;;;;;5105543;28;20234;-66
2023/11/13 13:26:55;;;;;;;9.30;3.47;;;;;;;;;;5104030;28;20022;-56
2023/11/13 13:29:22;;;;;;;11.68;3.33;;;;;;;;;;5105408;28;20035;-52
2023/11/13 13:31:51;;;;;;;9.20;3.13;;;;;;;;;;5105090;28;20308;-53
2023/11/13 13:34:18;;;;;;;6.30;2.78;;;;;;;;;;5105366;28;20095;-53
2023/11/13 13:36:45;;;;;;;7.22;2.53;;;;;;;;;;5105004;28;20027;-55
2023/11/13 13:39:17;;;;;;;3.30;2.30;;;;;;;;;;5104744;28;20250;-51
2023/11/13 13:41:44;;;;;;;6.22;2.35;;;;;;;;;;5105049;28;20075;-55
2023/11/13 13:44:12;;;;;;;6.57;2.50;;;;;;;;;;5105108;28;20036;-54
2023/11/13 13:46:42;;;;;;;6.70;2.92;;;;;;;;;;5104678;28;20027;-54
2023/11/13 13:49:11;;;;;;;5.70;2.70;;;;;;;;;;5104915;28;20020;-55
2023/11/13 13:51:38;;;;;;;5.47;2.90;;;;;;;;;;5105017;28;20024;-56
2023/11/13 13:54:08;;;;;;;6.65;2.90;;;;;;;;;;5104862;28;20031;-55
2023/11/13 13:56:38;;;;;;;5.55;2.78;;;;;;;;;;5104709;28;20042;-54
2023/11/13 13:59:07;;;;;;;4.70;2.10;;;;;;;;;;5104684;28;20319;-54
2023/11/13 14:01:36;;;;;;;4.95;2.53;;;;;;;;;;5104339;28;20024;-55
2023/11/13 14:04:05;;;;;;;7.82;2.25;;;;;;;;;;5104623;28;20055;-58
2023/11/13 14:06:33;;;;;;;8.63;2.83;;;;;;;;;;5104345;28;20026;-56
2023/11/13 14:09:00;;;;;;;6.88;2.90;;;;;;;;;;5104438;28;20293;-55
2023/11/13 14:11:27;;;;;;;7.35;3.30;;;;;;;;;;5104355;28;20016;-55
2023/11/13 14:13:56;;;;;;;7.18;2.42;;;;;;;;;;5104400;28;20103;-57
2023/11/13 14:16:22;;;;;;;5.97;2.97;;;;;;;;;;5104203;28;20023;-60
2023/11/13 14:18:49;;;;;;;3.55;2.40;;;;;;;;;;5104551;28;20101;-57
2023/11/13 14:21:16;;;;;;;3.97;2.30;;;;;;;;;;5104034;28;20066;-55
2023/11/13 14:23:43;;;;;;;6.18;2.35;;;;;;;;;;5104510;28;20044;-54
2023/11/13 14:26:16;;;;;;;5.32;2.80;;;;;;;;;;5104107;28;20208;-55
2023/11/13 14:28:43;;;;;;;6.57;2.70;;;;;;;;;;5104196;28;20032;-54
2023/11/13 14:31:09;;;;;;;4.90;2.70;;;;;;;;;;5103956;28;20016;-57
2023/11/13 14:33:38;;;;;;;7.70;3.03;;;;;;;;;;5104149;28;20288;-61
2023/11/13 14:36:07;;;;;;;8.65;3.10;;;;;;;;;;5103863;28;20036;-55
2023/11/13 14:38:34;;;;;;;9.43;2.40;;;;;;;;;;5104230;28;20023;-55
2023/11/13 14:41:03;;;;;;;5.20;2.38;;;;;;;;;;5103943;28;20361;-54
2023/11/13 14:43:31;;;;;;;5.03;2.55;;;;;;;;;;5103802;28;20040;-57
2023/11/13 14:46:00;;;;;;;5.30;2.33;;;;;;;;;;5103912;28;20018;-54